createdAt,value
2019-05-22T00:02:11.883Z,90.76
2019-05-22T00:04:44.215Z,90.55
2019-05-22T00:07:14.792Z,90.86
2019-05-22T00:09:46.385Z,91.20
2019-05-22T00:12:17.635Z,90.96
2019-05-22T00:14:47.876Z,90.89
2019-05-22T00:17:20.334Z,91.11
2019-05-22T00:19:50.079Z,91.39
2019-05-22T00:22:23.851Z,91.36
2019-05-22T00:24:55.137Z,91.28
2019-05-22T00:27:27.551Z,91.32
2019-05-22T00:29:57.621Z,91.34
2019-05-22T00:32:27.275Z,91.28
2019-05-22T00:34:56.999Z,91.23
2019-05-22T00:37:27.656Z,91.35
2019-05-22T00:39:58.491Z,91.32
2019-05-22T00:42:28.118Z,91.50
2019-05-22T00:44:59.198Z,91.81
2019-05-22T00:47:31.853Z,92.09
2019-05-22T00:50:04.210Z,91.91
2019-05-22T00:52:45.030Z,91.73
2019-05-22T00:55:25.109Z,91.58
2019-05-22T00:57:59.316Z,91.73
2019-05-22T01:00:30.688Z,91.67
2019-05-22T01:03:02.418Z,91.82
2019-05-22T01:05:32.035Z,91.89
2019-05-22T01:08:03.249Z,92.09
2019-05-22T01:10:33.526Z,92.23
2019-05-22T01:13:04.679Z,92.31
2019-05-22T01:15:35.824Z,92.14
2019-05-22T01:18:10.202Z,92.06
2019-05-22T01:20:42.221Z,91.84
2019-05-22T01:23:15.404Z,91.96
2019-05-22T01:25:46.104Z,91.96
2019-05-22T01:28:16.406Z,91.99
2019-05-22T01:30:50.470Z,92.04
2019-05-22T01:33:22.829Z,91.82
2019-05-22T01:36:00.603Z,92.01
2019-05-22T01:38:31.438Z,92.11
2019-05-22T01:41:14.952Z,92.10
2019-05-22T01:43:46.340Z,92.17
2019-05-22T01:46:16.377Z,92.33
2019-05-22T01:48:46.125Z,92.41
2019-05-22T01:51:18.218Z,92.59
2019-05-22T01:53:49.621Z,92.64
2019-05-22T01:56:21.037Z,92.65
2019-05-22T01:58:50.742Z,92.63
2019-05-22T02:01:22.013Z,92.53
2019-05-22T02:03:53.514Z,92.45
2019-05-22T02:06:25.028Z,92.49
2019-05-22T02:09:26.545Z,92.46
2019-05-22T02:12:13.801Z,92.34
2019-05-22T02:14:48.438Z,92.39
2019-05-22T02:17:22.425Z,92.32
2019-05-22T02:19:52.912Z,92.33
2019-05-22T02:22:23.609Z,92.44
2019-05-22T02:24:53.331Z,92.62
2019-05-22T02:27:24.289Z,92.54
2019-05-22T02:29:55.656Z,92.46
2019-05-22T02:32:26.401Z,92.51
2019-05-22T02:34:56.641Z,92.67
2019-05-22T02:37:27.544Z,92.61
2019-05-22T02:39:57.462Z,92.43
2019-05-22T02:42:31.185Z,92.30
2019-05-22T02:45:03.776Z,92.42
2019-05-22T02:47:36.683Z,92.18
2019-05-22T02:50:07.946Z,92.23
2019-05-22T02:52:38.163Z,92.02
2019-05-22T02:55:08.695Z,91.95
2019-05-22T02:57:38.460Z,91.91
2019-05-22T03:00:09.052Z,91.76
2019-05-22T03:02:52.904Z,91.45
2019-05-22T03:05:24.818Z,91.12
2019-05-22T03:07:54.810Z,90.77
2019-05-22T03:10:25.386Z,90.43
2019-05-22T03:12:55.364Z,90.04
2019-05-22T03:15:25.883Z,89.79
2019-05-22T03:18:04.115Z,89.61
2019-05-22T03:20:34.114Z,89.45
2019-05-22T03:23:33.606Z,89.26
2019-05-22T03:26:04.131Z,89.21
2019-05-22T03:28:35.112Z,88.83
2019-05-22T03:31:06.971Z,88.90
2019-05-22T03:33:37.118Z,88.91
2019-05-22T03:36:15.067Z,88.69
2019-05-22T03:38:45.215Z,88.58
2019-05-22T03:41:15.598Z,88.58
2019-05-22T03:43:48.579Z,88.54
2019-05-22T03:46:34.584Z,88.46
2019-05-22T03:49:05.575Z,88.36
2019-05-22T03:51:35.833Z,88.34
2019-05-22T03:54:06.669Z,88.08
2019-05-22T03:56:41.385Z,87.93
2019-05-22T03:59:11.269Z,87.83
2019-05-22T04:01:41.233Z,87.67
2019-05-22T04:04:11.151Z,87.61
2019-05-22T04:06:42.150Z,87.52
2019-05-22T04:09:23.979Z,87.59
2019-05-22T04:11:55.336Z,87.55
2019-05-22T04:14:34.452Z,87.80
2019-05-22T04:17:07.593Z,88.05
2019-05-22T04:19:49.296Z,88.15
2019-05-22T04:22:10.488Z,88.23
2019-05-22T04:24:41.827Z,88.30
2019-05-22T04:27:12.455Z,88.61
2019-05-22T04:29:42.997Z,88.89
2019-05-22T04:32:15.844Z,88.75
2019-05-22T04:34:45.995Z,88.93
2019-05-22T04:37:16.412Z,88.77
2019-05-22T04:39:48.199Z,88.53
2019-05-22T04:42:19.295Z,88.28
2019-05-22T04:45:15.947Z,88.24
2019-05-22T04:48:01.852Z,88.00
2019-05-22T04:50:32.376Z,88.15
2019-05-22T04:53:03.565Z,88.19
2019-05-22T04:55:33.298Z,88.18
2019-05-22T04:58:07.904Z,88.14
2019-05-22T05:00:37.632Z,87.60
2019-05-22T05:03:09.154Z,87.93
2019-05-22T05:05:43.319Z,88.22
2019-05-22T05:08:15.308Z,88.05
2019-05-22T05:10:49.819Z,88.07
2019-05-22T05:13:22.071Z,88.02
2019-05-22T05:15:51.649Z,88.21
2019-05-22T05:18:21.260Z,88.28
2019-05-22T05:20:50.904Z,88.67
2019-05-22T05:23:20.529Z,88.56
2019-05-22T05:25:50.493Z,88.64
2019-05-22T05:28:20.495Z,88.67
2019-05-22T05:30:52.367Z,88.75
2019-05-22T05:33:24.053Z,88.81
2019-05-22T05:35:54.186Z,88.83
2019-05-22T05:38:34.141Z,88.94
2019-05-22T05:41:04.991Z,88.90
2019-05-22T05:43:36.565Z,88.91
2019-05-22T05:46:06.322Z,88.98
2019-05-22T05:48:38.873Z,88.84
2019-05-22T05:51:16.387Z,88.55
2019-05-22T05:54:06.337Z,88.50
2019-05-22T05:56:39.281Z,88.43
2019-05-22T05:59:09.991Z,88.30
2019-05-22T06:01:44.825Z,88.13
2019-05-22T06:04:34.047Z,88.07
2019-05-22T06:07:02.004Z,87.80
2019-05-22T06:09:34.100Z,87.69
2019-05-22T06:12:06.072Z,87.58
2019-05-22T06:14:36.824Z,87.42
2019-05-22T06:17:47.741Z,87.29
2019-05-22T06:20:20.421Z,86.92
2019-05-22T06:23:27.901Z,86.55
2019-05-22T06:25:59.394Z,86.40
2019-05-22T06:28:38.484Z,86.04
2019-05-22T06:31:13.626Z,86.20
2019-05-22T06:33:43.827Z,85.63
2019-05-22T06:36:16.653Z,84.46
2019-05-22T06:39:00.307Z,84.34
2019-05-22T06:41:32.951Z,83.77
2019-05-22T06:44:34.103Z,83.17
2019-05-22T06:47:06.574Z,82.82
2019-05-22T06:49:39.103Z,82.37
2019-05-22T06:52:09.471Z,82.38
2019-05-22T06:54:39.515Z,82.43
2019-05-22T06:57:12.768Z,82.16
2019-05-22T06:59:44.317Z,80.97
2019-05-22T07:02:15.398Z,80.72
2019-05-22T07:04:45.382Z,80.03
2019-05-22T07:07:16.256Z,79.90
2019-05-22T07:09:46.776Z,79.99
2019-05-22T07:12:20.670Z,79.58
2019-05-22T07:15:12.148Z,78.99
2019-05-22T07:17:43.514Z,79.30
2019-05-22T07:20:15.821Z,79.53
2019-05-22T07:22:45.857Z,79.39
2019-05-22T07:25:20.097Z,78.22
2019-05-22T07:27:50.511Z,78.31
2019-05-22T07:30:20.072Z,78.46
2019-05-22T07:32:51.750Z,78.39
2019-05-22T07:35:22.399Z,78.02
2019-05-22T07:37:53.905Z,78.24
2019-05-22T07:40:24.085Z,77.90
2019-05-22T07:42:54.184Z,77.45
2019-05-22T07:45:27.228Z,76.98
2019-05-22T07:47:57.595Z,76.78
2019-05-22T07:50:29.226Z,76.91
2019-05-22T07:52:59.299Z,77.04
2019-05-22T07:55:32.318Z,76.83
2019-05-22T07:58:12.652Z,76.89
2019-05-22T08:00:47.971Z,76.84
2019-05-22T08:03:22.965Z,76.61
2019-05-22T08:05:56.707Z,75.97
2019-05-22T08:08:33.128Z,75.97
2019-05-22T08:11:05.551Z,75.41
2019-05-22T08:13:36.083Z,75.56
2019-05-22T08:16:09.397Z,75.76
2019-05-22T08:18:39.801Z,75.45
2019-05-22T08:21:11.823Z,75.67
2019-05-22T08:23:42.793Z,75.61
2019-05-22T08:26:13.706Z,76.06
2019-05-22T08:28:44.015Z,75.38
2019-05-22T08:31:16.110Z,75.05
2019-05-22T08:33:45.894Z,74.60
2019-05-22T08:36:18.587Z,74.62
2019-05-22T08:38:49.439Z,74.97
2019-05-22T08:41:24.129Z,75.51
2019-05-22T08:44:14.482Z,75.41
2019-05-22T08:46:25.783Z,75.72
2019-05-22T08:48:56.486Z,74.40
2019-05-22T08:51:26.344Z,73.28
2019-05-22T08:53:57.504Z,73.18
2019-05-22T08:56:28.590Z,72.92
2019-05-22T08:58:58.971Z,72.32
2019-05-22T09:01:29.035Z,71.67
2019-05-22T09:03:59.995Z,71.76
2019-05-22T09:06:29.736Z,71.83
2019-05-22T09:08:59.579Z,71.54
2019-05-22T09:11:30.547Z,71.92
2019-05-22T09:14:01.340Z,71.76
2019-05-22T09:16:33.403Z,71.69
2019-05-22T09:19:04.913Z,71.76
2019-05-22T09:21:35.525Z,70.91
2019-05-22T09:24:08.508Z,70.91
2019-05-22T09:26:40.758Z,70.30
2019-05-22T09:29:11.239Z,70.58
2019-05-22T09:31:42.117Z,71.44
2019-05-22T09:34:12.235Z,71.63
2019-05-22T09:36:43.020Z,71.27
2019-05-22T09:39:12.790Z,70.96
2019-05-22T09:41:42.523Z,70.54
2019-05-22T09:44:15.265Z,71.22
2019-05-22T09:46:45.931Z,71.22
2019-05-22T09:49:15.631Z,70.71
2019-05-22T09:51:45.572Z,70.60
2019-05-22T09:54:16.584Z,70.77
2019-05-22T09:56:46.304Z,70.56
2019-05-22T09:59:16.171Z,69.81
2019-05-22T10:01:46.218Z,70.50
2019-05-22T10:04:15.967Z,70.50
2019-05-22T10:06:46.970Z,69.90
2019-05-22T10:09:17.050Z,69.64
2019-05-22T10:11:47.381Z,69.97
2019-05-22T10:14:18.389Z,69.54
2019-05-22T10:16:48.218Z,68.90
2019-05-22T10:19:19.860Z,68.45
2019-05-22T10:21:50.531Z,68.78
2019-05-22T10:24:22.717Z,68.88
2019-05-22T10:26:53.347Z,67.77
2019-05-22T10:29:23.230Z,66.74
2019-05-22T10:31:52.775Z,66.60
2019-05-22T10:34:22.355Z,66.04
2019-05-22T10:36:55.682Z,65.63
2019-05-22T10:39:26.778Z,65.39
2019-05-22T10:41:56.617Z,64.46
2019-05-22T10:44:27.152Z,64.12
2019-05-22T10:46:56.933Z,64.12
2019-05-22T10:49:26.877Z,64.54
2019-05-22T10:51:58.835Z,64.16
2019-05-22T10:54:29.233Z,65.01
2019-05-22T10:56:58.797Z,63.59
2019-05-22T10:59:28.807Z,63.07
2019-05-22T11:01:58.560Z,63.24
2019-05-22T11:04:30.037Z,62.35
2019-05-22T11:06:59.774Z,60.55
2019-05-22T11:09:31.546Z,61.03
2019-05-22T11:12:01.762Z,60.93
2019-05-22T11:14:32.355Z,61.58
2019-05-22T11:17:02.634Z,61.72
2019-05-22T11:19:32.941Z,61.98
2019-05-22T11:22:03.402Z,61.36
2019-05-22T11:24:33.061Z,61.89
2019-05-22T11:27:05.731Z,61.58
2019-05-22T11:29:35.312Z,60.59
2019-05-22T11:32:05.755Z,60.21
2019-05-22T11:34:38.925Z,60.84
2019-05-22T11:37:08.571Z,60.65
2019-05-22T11:39:41.167Z,61.18
2019-05-22T11:42:11.154Z,60.89
2019-05-22T11:44:41.135Z,60.21
2019-05-22T11:47:12.180Z,58.81
2019-05-22T11:49:43.134Z,57.59
2019-05-22T11:52:14.439Z,58.20
2019-05-22T11:54:44.600Z,56.95
2019-05-22T11:57:15.209Z,56.78
2019-05-22T11:59:45.290Z,58.18
2019-05-22T12:02:16.152Z,58.36
2019-05-22T12:04:48.927Z,58.59
2019-05-22T12:07:19.983Z,58.43
2019-05-22T12:09:49.822Z,57.70
2019-05-22T12:12:20.426Z,58.04
2019-05-22T12:14:53.089Z,58.43
2019-05-22T12:17:37.288Z,56.68
2019-05-22T12:19:55.132Z,57.50
2019-05-22T12:22:24.692Z,57.06
2019-05-22T12:24:54.442Z,55.90
2019-05-22T12:27:24.295Z,55.44
2019-05-22T12:29:54.342Z,55.83
2019-05-22T12:32:24.741Z,56.69
2019-05-22T12:34:57.626Z,56.99
2019-05-22T12:37:28.830Z,56.78
2019-05-22T12:40:00.791Z,55.59
2019-05-22T12:42:35.877Z,56.24
2019-05-22T12:45:08.623Z,54.84
2019-05-22T12:47:39.457Z,55.95
2019-05-22T12:50:10.601Z,56.16
2019-05-22T12:52:40.253Z,55.89
2019-05-22T12:55:11.177Z,56.09
2019-05-22T12:57:41.630Z,54.71
2019-05-22T13:00:16.342Z,55.04
2019-05-22T13:02:46.935Z,55.43
2019-05-22T13:05:19.623Z,55.07
2019-05-22T13:07:49.843Z,54.18
2019-05-22T13:10:20.186Z,55.54
2019-05-22T13:12:50.024Z,55.23
2019-05-22T13:15:20.386Z,55.61
2019-05-22T13:17:54.128Z,54.71
2019-05-22T13:20:41.942Z,54.33
2019-05-22T13:23:04.626Z,54.21
2019-05-22T13:25:38.921Z,54.54
2019-05-22T13:28:10.280Z,52.82
2019-05-22T13:30:43.986Z,53.54
2019-05-22T13:33:20.949Z,52.32
2019-05-22T13:35:53.571Z,50.87
2019-05-22T13:38:23.609Z,52.18
2019-05-22T13:40:55.234Z,52.26
2019-05-22T13:43:27.938Z,51.99
2019-05-22T13:45:57.958Z,51.85
2019-05-22T13:48:28.702Z,52.35
2019-05-22T13:51:00.265Z,52.28
2019-05-22T13:53:35.309Z,53.12
2019-05-22T13:56:08.824Z,53.06
2019-05-22T13:58:39.947Z,53.21
2019-05-22T14:01:10.094Z,50.02
2019-05-22T14:03:40.334Z,51.36
2019-05-22T14:06:11.871Z,50.70
2019-05-22T14:08:41.771Z,51.28
2019-05-22T14:11:12.554Z,50.17
2019-05-22T14:13:42.650Z,49.77
2019-05-22T14:16:12.888Z,48.66
2019-05-22T14:18:43.826Z,48.90
2019-05-22T14:21:13.385Z,50.77
2019-05-22T14:23:45.234Z,50.78
2019-05-22T14:26:15.320Z,50.36
2019-05-22T14:28:45.218Z,51.21
2019-05-22T14:31:15.101Z,50.84
2019-05-22T14:33:44.983Z,51.47
2019-05-22T14:36:15.125Z,51.72
2019-05-22T14:38:46.403Z,51.58
2019-05-22T14:41:19.445Z,51.69
2019-05-22T14:43:49.602Z,50.55
2019-05-22T14:46:19.186Z,51.28
2019-05-22T14:48:48.791Z,50.42
2019-05-22T14:51:20.464Z,48.64
2019-05-22T14:53:55.568Z,46.37
2019-05-22T14:56:26.402Z,48.01
2019-05-22T14:58:57.512Z,48.35
2019-05-22T15:01:29.821Z,49.06
2019-05-22T15:03:59.505Z,49.20
2019-05-22T15:06:29.244Z,49.30
2019-05-22T15:08:59.890Z,46.34
2019-05-22T15:11:30.134Z,46.99
2019-05-22T15:14:01.421Z,46.99
2019-05-22T15:16:31.990Z,47.43
2019-05-22T15:19:01.552Z,47.72
2019-05-22T15:21:31.817Z,47.86
2019-05-22T15:24:01.817Z,46.50
2019-05-22T15:26:31.457Z,48.48
2019-05-22T15:29:01.198Z,46.67
2019-05-22T15:31:31.094Z,46.97
2019-05-22T15:34:05.120Z,46.01
2019-05-22T15:36:35.730Z,46.23
2019-05-22T15:39:08.454Z,46.79
2019-05-22T15:41:39.485Z,45.58
2019-05-22T15:44:10.559Z,45.20
2019-05-22T15:46:41.422Z,44.91
2019-05-22T15:49:12.700Z,46.10
2019-05-22T15:51:45.471Z,45.06
2019-05-22T15:54:18.535Z,46.02
2019-05-22T15:56:49.070Z,46.23
2019-05-22T15:59:20.764Z,46.11
2019-05-22T16:01:51.268Z,46.52
2019-05-22T16:04:23.621Z,46.99
2019-05-22T16:06:53.447Z,45.37
2019-05-22T16:09:25.571Z,45.25
2019-05-22T16:11:56.595Z,46.10
2019-05-22T16:14:28.503Z,46.64
2019-05-22T16:16:59.355Z,43.53
2019-05-22T16:19:31.410Z,43.63
2019-05-22T16:22:05.282Z,44.32
2019-05-22T16:24:36.896Z,44.06
2019-05-22T16:27:08.298Z,43.44
2019-05-22T16:29:40.571Z,43.17
2019-05-22T16:32:13.389Z,44.43
2019-05-22T16:34:44.236Z,44.68
2019-05-22T16:37:16.897Z,44.69
2019-05-22T16:39:50.450Z,44.92
2019-05-22T16:42:22.400Z,45.63
2019-05-22T16:44:53.931Z,45.61
2019-05-22T16:47:25.304Z,44.65
2019-05-22T16:49:56.910Z,45.04
2019-05-22T16:52:30.294Z,45.25
2019-05-22T16:55:02.092Z,45.56
2019-05-22T16:57:33.722Z,44.38
2019-05-22T17:00:07.374Z,45.14
2019-05-22T17:02:41.697Z,43.91
2019-05-22T17:05:15.893Z,44.44
2019-05-22T17:07:47.008Z,44.85
2019-05-22T17:10:20.045Z,45.70
2019-05-22T17:12:54.680Z,46.50
2019-05-22T17:15:26.385Z,45.33
2019-05-22T17:17:56.985Z,44.92
2019-05-22T17:20:29.630Z,45.12
2019-05-22T17:23:00.909Z,45.90
2019-05-22T17:25:32.539Z,45.15
2019-05-22T17:28:04.586Z,45.45
2019-05-22T17:30:38.266Z,46.25
2019-05-22T17:33:13.545Z,46.69
2019-05-22T17:35:49.426Z,46.12
2019-05-22T17:38:23.658Z,45.24
2019-05-22T17:40:55.022Z,45.43
2019-05-22T17:43:26.761Z,45.46
2019-05-22T17:45:58.152Z,45.97
2019-05-22T17:48:32.019Z,45.96
2019-05-22T17:51:02.771Z,46.35
2019-05-22T17:53:34.264Z,46.75
2019-05-22T17:56:05.814Z,47.20
2019-05-22T17:58:36.192Z,46.49
2019-05-22T18:01:12.039Z,47.20
2019-05-22T18:03:42.598Z,47.10
2019-05-22T18:06:12.676Z,47.36
2019-05-22T18:08:44.744Z,46.16
2019-05-22T18:11:17.300Z,46.21
2019-05-22T18:14:01.297Z,46.83
2019-05-22T18:16:31.825Z,47.26
2019-05-22T18:19:01.373Z,47.16
2019-05-22T18:21:32.281Z,46.89
2019-05-22T18:24:02.557Z,46.82
2019-05-22T18:26:33.592Z,46.64
2019-05-22T18:29:03.311Z,47.11
2019-05-22T18:31:33.711Z,47.37
2019-05-22T18:34:04.809Z,47.70
2019-05-22T18:36:35.719Z,47.45
2019-05-22T18:39:08.954Z,47.33
2019-05-22T18:41:41.321Z,47.51
2019-05-22T18:44:10.891Z,47.59
2019-05-22T18:46:40.799Z,47.78
2019-05-22T18:49:10.342Z,48.31
2019-05-22T18:51:46.628Z,49.25
2019-05-22T18:54:18.957Z,49.50
2019-05-22T18:56:48.047Z,50.70
2019-05-22T18:59:17.608Z,51.71
2019-05-22T19:01:47.355Z,53.04
2019-05-22T19:04:16.903Z,53.63
2019-05-22T19:06:48.173Z,54.24
2019-05-22T19:09:17.866Z,54.74
2019-05-22T19:11:47.686Z,55.10
2019-05-22T19:14:18.251Z,55.28
2019-05-22T19:16:47.798Z,56.14
2019-05-22T19:19:18.022Z,56.36
2019-05-22T19:21:50.413Z,56.52
2019-05-22T19:24:20.523Z,56.59
2019-05-22T19:26:50.393Z,56.76
2019-05-22T19:29:21.721Z,57.22
2019-05-22T19:31:53.215Z,57.92
2019-05-22T19:34:23.329Z,58.78
2019-05-22T19:36:53.483Z,59.39
2019-05-22T19:39:23.456Z,59.60
2019-05-22T19:42:03.355Z,60.33
2019-05-22T19:44:25.508Z,60.75
2019-05-22T19:46:58.821Z,60.84
2019-05-22T19:49:30.788Z,60.81
2019-05-22T19:52:02.673Z,61.23
2019-05-22T19:54:34.896Z,61.70
2019-05-22T19:57:06.381Z,62.13
2019-05-22T19:59:39.295Z,62.54
2019-05-22T20:02:12.786Z,62.98
2019-05-22T20:04:46.019Z,63.42
2019-05-22T20:07:17.553Z,63.92
2019-05-22T20:09:48.442Z,64.31
2019-05-22T20:12:24.871Z,64.65
2019-05-22T20:14:54.425Z,65.03
2019-05-22T20:17:24.273Z,65.20
2019-05-22T20:19:54.290Z,65.40
2019-05-22T20:22:24.689Z,65.54
2019-05-22T20:24:57.723Z,65.56
2019-05-22T20:27:27.916Z,65.50
2019-05-22T20:29:57.874Z,65.33
2019-05-22T20:32:28.277Z,65.08
2019-05-22T20:35:01.880Z,65.24
2019-05-22T20:37:37.357Z,65.15
2019-05-22T20:40:11.865Z,65.19
2019-05-22T20:42:44.000Z,65.26
2019-05-22T20:45:17.398Z,65.34
2019-05-22T20:47:52.680Z,65.08
2019-05-22T20:50:25.438Z,65.12
2019-05-22T20:52:56.826Z,65.07
2019-05-22T20:55:28.647Z,64.87
2019-05-22T20:58:03.363Z,65.05
2019-05-22T21:00:36.634Z,65.46
2019-05-22T21:03:09.411Z,65.76
2019-05-22T21:05:43.471Z,65.98
2019-05-22T21:08:17.042Z,65.91
2019-05-22T21:10:52.077Z,65.64
2019-05-22T21:13:27.901Z,65.83
2019-05-22T21:15:59.037Z,66.31
2019-05-22T21:21:03.411Z,66.80
2019-05-22T21:23:34.842Z,67.31
2019-05-22T21:26:08.734Z,67.71
2019-05-22T21:28:41.645Z,67.45
2019-05-22T21:31:13.911Z,67.32
2019-05-22T21:33:45.120Z,67.20
2019-05-22T21:36:17.229Z,67.21
2019-05-22T21:38:51.097Z,67.34
2019-05-22T21:41:24.859Z,67.37
2019-05-22T21:43:56.341Z,67.44
2019-05-22T21:46:27.590Z,67.62
2019-05-22T21:49:01.629Z,67.82
2019-05-22T21:51:35.493Z,67.79
2019-05-22T21:54:08.271Z,67.87
2019-05-22T21:56:41.010Z,68.10
2019-05-22T21:59:12.443Z,68.15
2019-05-22T22:01:45.591Z,68.11
2019-05-22T22:04:24.875Z,68.12
2019-05-22T22:07:01.272Z,68.00
2019-05-22T22:09:41.666Z,68.06
2019-05-22T22:12:17.430Z,68.31
2019-05-22T22:14:53.154Z,68.27
2019-05-22T22:17:24.809Z,68.26
2019-05-22T22:19:55.549Z,68.20
2019-05-22T22:22:28.292Z,68.32
2019-05-22T22:24:58.988Z,68.65
2019-05-22T22:27:29.424Z,68.99
2019-05-22T22:29:58.986Z,69.47
2019-05-22T22:32:30.365Z,69.91
2019-05-22T22:35:00.079Z,70.18
2019-05-22T22:37:31.302Z,70.39
2019-05-22T22:40:02.637Z,70.42
2019-05-22T22:42:36.759Z,70.47
2019-05-22T22:45:09.769Z,70.66
2019-05-22T22:47:42.978Z,70.63
2019-05-22T22:50:13.837Z,70.70
2019-05-22T22:52:45.810Z,70.87
2019-05-22T22:55:17.485Z,71.18
2019-05-22T22:57:48.533Z,71.43
2019-05-22T23:00:20.517Z,71.64
2019-05-22T23:02:50.654Z,71.54
2019-05-22T23:05:20.489Z,71.52
2019-05-22T23:07:51.038Z,71.51
2019-05-22T23:10:23.775Z,71.61
2019-05-22T23:12:59.558Z,71.78
2019-05-22T23:15:29.940Z,71.73
2019-05-22T23:18:02.254Z,72.10
2019-05-22T23:20:30.232Z,72.10
2019-05-22T23:22:58.726Z,72.40
2019-05-22T23:25:28.450Z,72.54
2019-05-22T23:27:59.160Z,72.72
2019-05-22T23:30:29.547Z,72.74
2019-05-22T23:32:59.127Z,72.72
2019-05-22T23:35:30.387Z,72.91
2019-05-22T23:38:02.550Z,73.30
2019-05-22T23:40:39.860Z,73.63
2019-05-22T23:43:17.250Z,73.78
2019-05-22T23:45:49.745Z,73.98
2019-05-22T23:48:19.919Z,73.93
2019-05-22T23:50:49.594Z,73.68
2019-05-22T23:53:20.967Z,73.61
2019-05-22T23:55:50.543Z,73.77
2019-05-22T23:58:20.381Z,74.02
